sensor_id;sensor_type;location;lat;lon;timestamp;P1;durP1;ratioP1;P2;durP2;ratioP2
18752;SDS011;9505;50.882;5.350;2023-04-06T00:01:31;66.43;;;13.97;;
18752;SDS011;9505;50.882;5.350;2023-04-06T00:03:57;65.63;;;13.90;;
18752;SDS011;9505;50.882;5.350;2023-04-06T00:06:22;66.37;;;14.10;;
18752;SDS011;9505;50.882;5.350;2023-04-06T00:08:48;66.03;;;12.73;;
18752;SDS011;9505;50.882;5.350;2023-04-06T00:11:13;63.07;;;14.47;;
18752;SDS011;9505;50.882;5.350;2023-04-06T00:13:41;149.37;;;20.60;;
18752;SDS011;9505;50.882;5.350;2023-04-06T00:16:07;64.28;;;14.23;;
18752;SDS011;9505;50.882;5.350;2023-04-06T00:18:32;74.67;;;14.07;;
18752;SDS011;9505;50.882;5.350;2023-04-06T00:20:58;73.63;;;15.60;;
18752;SDS011;9505;50.882;5.350;2023-04-06T00:23:24;65.43;;;14.87;;
18752;SDS011;9505;50.882;5.350;2023-04-06T00:25:49;66.23;;;13.27;;
18752;SDS011;9505;50.882;5.350;2023-04-06T00:28:15;65.63;;;14.07;;
18752;SDS011;9505;50.882;5.350;2023-04-06T00:30:41;58.40;;;14.10;;
18752;SDS011;9505;50.882;5.350;2023-04-06T00:33:06;71.13;;;14.93;;
18752;SDS011;9505;50.882;5.350;2023-04-06T00:35:32;63.33;;;14.33;;
18752;SDS011;9505;50.882;5.350;2023-04-06T00:37:58;69.47;;;14.10;;
18752;SDS011;9505;50.882;5.350;2023-04-06T00:40:23;70.90;;;14.30;;
18752;SDS011;9505;50.882;5.350;2023-04-06T00:42:49;64.40;;;13.10;;
18752;SDS011;9505;50.882;5.350;2023-04-06T00:45:15;63.30;;;13.90;;
18752;SDS011;9505;50.882;5.350;2023-04-06T00:47:41;60.73;;;13.33;;
18752;SDS011;9505;50.882;5.350;2023-04-06T00:50:07;70.27;;;14.40;;
18752;SDS011;9505;50.882;5.350;2023-04-06T00:52:33;68.03;;;14.10;;
18752;SDS011;9505;50.882;5.350;2023-04-06T00:55:00;66.93;;;13.23;;
18752;SDS011;9505;50.882;5.350;2023-04-06T00:57:26;75.43;;;14.70;;
18752;SDS011;9505;50.882;5.350;2023-04-06T00:59:52;61.17;;;12.77;;
18752;SDS011;9505;50.882;5.350;2023-04-06T01:02:18;57.97;;;13.50;;
18752;SDS011;9505;50.882;5.350;2023-04-06T01:04:44;80.13;;;15.47;;
18752;SDS011;9505;50.882;5.350;2023-04-06T01:07:10;74.77;;;15.13;;
18752;SDS011;9505;50.882;5.350;2023-04-06T01:09:35;71.77;;;14.50;;
18752;SDS011;9505;50.882;5.350;2023-04-06T01:12:01;66.33;;;13.90;;
18752;SDS011;9505;50.882;5.350;2023-04-06T01:14:27;67.90;;;14.90;;
18752;SDS011;9505;50.882;5.350;2023-04-06T01:16:53;65.30;;;13.90;;
18752;SDS011;9505;50.882;5.350;2023-04-06T01:19:19;81.60;;;15.37;;
18752;SDS011;9505;50.882;5.350;2023-04-06T01:21:45;66.87;;;14.47;;
18752;SDS011;9505;50.882;5.350;2023-04-06T01:24:11;72.13;;;15.60;;
18752;SDS011;9505;50.882;5.350;2023-04-06T01:26:38;68.20;;;15.10;;
18752;SDS011;9505;50.882;5.350;2023-04-06T01:29:04;89.67;;;16.07;;
18752;SDS011;9505;50.882;5.350;2023-04-06T01:31:29;60.53;;;13.43;;
18752;SDS011;9505;50.882;5.350;2023-04-06T01:33:55;68.47;;;14.73;;
18752;SDS011;9505;50.882;5.350;2023-04-06T01:36:21;67.23;;;14.07;;
18752;SDS011;9505;50.882;5.350;2023-04-06T01:38:47;77.13;;;15.00;;
18752;SDS011;9505;50.882;5.350;2023-04-06T01:41:12;74.93;;;15.63;;
18752;SDS011;9505;50.882;5.350;2023-04-06T01:43:38;70.77;;;15.77;;
18752;SDS011;9505;50.882;5.350;2023-04-06T01:46:04;77.97;;;16.17;;
18752;SDS011;9505;50.882;5.350;2023-04-06T01:48:30;74.73;;;15.40;;
18752;SDS011;9505;50.882;5.350;2023-04-06T01:50:56;69.93;;;14.23;;
18752;SDS011;9505;50.882;5.350;2023-04-06T01:53:22;73.40;;;14.20;;
18752;SDS011;9505;50.882;5.350;2023-04-06T01:55:47;62.00;;;13.27;;
18752;SDS011;9505;50.882;5.350;2023-04-06T01:58:13;60.17;;;13.37;;
18752;SDS011;9505;50.882;5.350;2023-04-06T02:00:39;83.67;;;15.47;;
18752;SDS011;9505;50.882;5.350;2023-04-06T02:03:05;75.53;;;18.43;;
18752;SDS011;9505;50.882;5.350;2023-04-06T02:05:31;69.63;;;15.07;;
18752;SDS011;9505;50.882;5.350;2023-04-06T02:08:03;62.97;;;13.83;;
18752;SDS011;9505;50.882;5.350;2023-04-06T02:10:32;68.27;;;13.57;;
18752;SDS011;9505;50.882;5.350;2023-04-06T02:12:59;73.17;;;13.37;;
18752;SDS011;9505;50.882;5.350;2023-04-06T02:15:25;74.23;;;15.07;;
18752;SDS011;9505;50.882;5.350;2023-04-06T02:17:51;68.90;;;14.20;;
18752;SDS011;9505;50.882;5.350;2023-04-06T02:20:17;69.63;;;14.90;;
18752;SDS011;9505;50.882;5.350;2023-04-06T02:22:43;79.20;;;15.80;;
18752;SDS011;9505;50.882;5.350;2023-04-06T02:25:09;76.27;;;14.80;;
18752;SDS011;9505;50.882;5.350;2023-04-06T02:27:34;65.57;;;15.97;;
18752;SDS011;9505;50.882;5.350;2023-04-06T02:30:01;73.50;;;16.50;;
18752;SDS011;9505;50.882;5.350;2023-04-06T02:32:30;80.93;;;16.50;;
18752;SDS011;9505;50.882;5.350;2023-04-06T02:34:55;72.30;;;15.90;;
18752;SDS011;9505;50.882;5.350;2023-04-06T02:37:21;84.83;;;18.43;;
18752;SDS011;9505;50.882;5.350;2023-04-06T02:39:48;73.80;;;16.43;;
18752;SDS011;9505;50.882;5.350;2023-04-06T02:42:14;87.13;;;17.73;;
18752;SDS011;9505;50.882;5.350;2023-04-06T02:44:41;85.57;;;17.40;;
18752;SDS011;9505;50.882;5.350;2023-04-06T02:47:07;85.23;;;15.90;;
18752;SDS011;9505;50.882;5.350;2023-04-06T02:49:33;74.97;;;15.73;;
18752;SDS011;9505;50.882;5.350;2023-04-06T02:51:58;78.07;;;16.33;;
18752;SDS011;9505;50.882;5.350;2023-04-06T02:54:24;87.10;;;19.13;;
18752;SDS011;9505;50.882;5.350;2023-04-06T02:56:50;98.47;;;19.03;;
18752;SDS011;9505;50.882;5.350;2023-04-06T02:59:15;82.80;;;17.57;;
18752;SDS011;9505;50.882;5.350;2023-04-06T03:01:41;82.87;;;16.80;;
18752;SDS011;9505;50.882;5.350;2023-04-06T03:04:07;77.07;;;18.27;;
18752;SDS011;9505;50.882;5.350;2023-04-06T03:06:32;82.80;;;18.63;;
18752;SDS011;9505;50.882;5.350;2023-04-06T03:08:58;87.60;;;17.57;;
18752;SDS011;9505;50.882;5.350;2023-04-06T03:11:23;80.10;;;17.70;;
18752;SDS011;9505;50.882;5.350;2023-04-06T03:13:51;91.38;;;19.27;;
18752;SDS011;9505;50.882;5.350;2023-04-06T03:16:17;81.03;;;17.40;;
18752;SDS011;9505;50.882;5.350;2023-04-06T03:18:42;75.15;;;18.05;;
18752;SDS011;9505;50.882;5.350;2023-04-06T03:21:10;82.18;;;17.10;;
18752;SDS011;9505;50.882;5.350;2023-04-06T03:23:35;69.68;;;15.93;;
18752;SDS011;9505;50.882;5.350;2023-04-06T03:26:01;86.63;;;18.43;;
18752;SDS011;9505;50.882;5.350;2023-04-06T03:28:27;86.45;;;18.88;;
18752;SDS011;9505;50.882;5.350;2023-04-06T03:30:53;86.63;;;19.95;;
18752;SDS011;9505;50.882;5.350;2023-04-06T03:33:19;87.85;;;20.50;;
18752;SDS011;9505;50.882;5.350;2023-04-06T03:35:45;83.85;;;19.42;;
18752;SDS011;9505;50.882;5.350;2023-04-06T03:38:10;89.15;;;19.67;;
18752;SDS011;9505;50.882;5.350;2023-04-06T03:40:36;82.25;;;19.23;;
18752;SDS011;9505;50.882;5.350;2023-04-06T03:43:02;88.35;;;19.98;;
18752;SDS011;9505;50.882;5.350;2023-04-06T03:45:27;78.95;;;19.42;;
18752;SDS011;9505;50.882;5.350;2023-04-06T03:47:53;92.00;;;20.38;;
18752;SDS011;9505;50.882;5.350;2023-04-06T03:50:19;78.38;;;18.85;;
18752;SDS011;9505;50.882;5.350;2023-04-06T03:52:44;79.53;;;19.50;;
18752;SDS011;9505;50.882;5.350;2023-04-06T03:55:10;86.97;;;20.50;;
18752;SDS011;9505;50.882;5.350;2023-04-06T03:57:36;80.65;;;18.70;;
18752;SDS011;9505;50.882;5.350;2023-04-06T04:00:02;86.40;;;20.80;;
18752;SDS011;9505;50.882;5.350;2023-04-06T04:02:28;79.57;;;19.35;;
18752;SDS011;9505;50.882;5.350;2023-04-06T04:04:54;86.18;;;20.77;;
18752;SDS011;9505;50.882;5.350;2023-04-06T04:07:20;91.97;;;21.77;;
18752;SDS011;9505;50.882;5.350;2023-04-06T04:09:45;87.85;;;20.83;;
18752;SDS011;9505;50.882;5.350;2023-04-06T04:12:11;77.35;;;19.67;;
18752;SDS011;9505;50.882;5.350;2023-04-06T04:14:37;85.63;;;19.63;;
18752;SDS011;9505;50.882;5.350;2023-04-06T04:17:02;87.13;;;20.40;;
18752;SDS011;9505;50.882;5.350;2023-04-06T04:19:28;78.93;;;19.90;;
18752;SDS011;9505;50.882;5.350;2023-04-06T04:21:53;90.63;;;20.38;;
18752;SDS011;9505;50.882;5.350;2023-04-06T04:24:19;78.47;;;19.40;;
18752;SDS011;9505;50.882;5.350;2023-04-06T04:26:45;93.20;;;19.80;;
18752;SDS011;9505;50.882;5.350;2023-04-06T04:29:10;78.38;;;18.38;;
18752;SDS011;9505;50.882;5.350;2023-04-06T04:31:36;86.10;;;19.92;;
18752;SDS011;9505;50.882;5.350;2023-04-06T04:34:01;92.53;;;20.48;;
18752;SDS011;9505;50.882;5.350;2023-04-06T04:36:27;92.88;;;19.85;;
18752;SDS011;9505;50.882;5.350;2023-04-06T04:38:53;94.38;;;20.38;;
18752;SDS011;9505;50.882;5.350;2023-04-06T04:41:18;88.35;;;20.48;;
18752;SDS011;9505;50.882;5.350;2023-04-06T04:43:44;78.85;;;19.65;;
18752;SDS011;9505;50.882;5.350;2023-04-06T04:46:10;75.85;;;19.08;;
18752;SDS011;9505;50.882;5.350;2023-04-06T04:48:36;93.03;;;20.55;;
18752;SDS011;9505;50.882;5.350;2023-04-06T04:51:02;86.85;;;19.67;;
18752;SDS011;9505;50.882;5.350;2023-04-06T04:53:28;89.15;;;20.55;;
18752;SDS011;9505;50.882;5.350;2023-04-06T04:55:54;87.65;;;19.63;;
18752;SDS011;9505;50.882;5.350;2023-04-06T04:58:20;79.47;;;18.80;;
18752;SDS011;9505;50.882;5.350;2023-04-06T05:00:46;86.05;;;18.55;;
18752;SDS011;9505;50.882;5.350;2023-04-06T05:03:14;78.28;;;18.60;;
18752;SDS011;9505;50.882;5.350;2023-04-06T05:05:51;85.32;;;18.33;;
18752;SDS011;9505;50.882;5.350;2023-04-06T05:08:17;81.55;;;20.08;;
18752;SDS011;9505;50.882;5.350;2023-04-06T05:10:43;81.07;;;20.02;;
18752;SDS011;9505;50.882;5.350;2023-04-06T05:13:09;102.18;;;21.02;;
18752;SDS011;9505;50.882;5.350;2023-04-06T05:15:35;81.80;;;19.48;;
18752;SDS011;9505;50.882;5.350;2023-04-06T05:18:03;99.47;;;20.67;;
18752;SDS011;9505;50.882;5.350;2023-04-06T05:20:29;97.70;;;21.02;;
18752;SDS011;9505;50.882;5.350;2023-04-06T05:22:55;81.30;;;18.38;;
18752;SDS011;9505;50.882;5.350;2023-04-06T05:25:21;79.93;;;18.10;;
18752;SDS011;9505;50.882;5.350;2023-04-06T05:27:47;82.13;;;19.08;;
18752;SDS011;9505;50.882;5.350;2023-04-06T05:30:13;82.75;;;19.50;;
18752;SDS011;9505;50.882;5.350;2023-04-06T05:32:39;78.82;;;18.70;;
18752;SDS011;9505;50.882;5.350;2023-04-06T05:35:05;80.25;;;19.48;;
18752;SDS011;9505;50.882;5.350;2023-04-06T05:37:31;75.75;;;17.75;;
18752;SDS011;9505;50.882;5.350;2023-04-06T05:39:57;88.43;;;19.42;;
18752;SDS011;9505;50.882;5.350;2023-04-06T05:42:22;76.68;;;18.05;;
18752;SDS011;9505;50.882;5.350;2023-04-06T05:44:48;76.47;;;17.90;;
18752;SDS011;9505;50.882;5.350;2023-04-06T05:47:14;79.85;;;19.42;;
18752;SDS011;9505;50.882;5.350;2023-04-06T05:49:41;74.55;;;18.80;;
18752;SDS011;9505;50.882;5.350;2023-04-06T05:52:07;76.32;;;17.08;;
18752;SDS011;9505;50.882;5.350;2023-04-06T05:54:34;71.30;;;17.40;;
18752;SDS011;9505;50.882;5.350;2023-04-06T05:57:01;69.07;;;16.70;;
18752;SDS011;9505;50.882;5.350;2023-04-06T05:59:29;61.80;;;16.55;;
18752;SDS011;9505;50.882;5.350;2023-04-06T06:01:55;69.40;;;17.13;;
18752;SDS011;9505;50.882;5.350;2023-04-06T06:04:21;63.40;;;15.10;;
18752;SDS011;9505;50.882;5.350;2023-04-06T06:06:47;71.32;;;16.50;;
18752;SDS011;9505;50.882;5.350;2023-04-06T06:09:12;59.70;;;15.35;;
18752;SDS011;9505;50.882;5.350;2023-04-06T06:11:38;70.88;;;16.42;;
18752;SDS011;9505;50.882;5.350;2023-04-06T06:14:04;61.72;;;15.15;;
18752;SDS011;9505;50.882;5.350;2023-04-06T06:16:29;64.93;;;14.93;;
18752;SDS011;9505;50.882;5.350;2023-04-06T06:18:55;65.07;;;15.25;;
18752;SDS011;9505;50.882;5.350;2023-04-06T06:21:21;61.75;;;13.82;;
18752;SDS011;9505;50.882;5.350;2023-04-06T06:23:46;58.47;;;14.50;;
18752;SDS011;9505;50.882;5.350;2023-04-06T06:26:14;67.72;;;15.50;;
18752;SDS011;9505;50.882;5.350;2023-04-06T06:28:40;65.30;;;14.45;;
18752;SDS011;9505;50.882;5.350;2023-04-06T06:31:06;62.03;;;15.73;;
18752;SDS011;9505;50.882;5.350;2023-04-06T06:33:32;66.85;;;14.77;;
18752;SDS011;9505;50.882;5.350;2023-04-06T06:35:57;61.13;;;14.30;;
18752;SDS011;9505;50.882;5.350;2023-04-06T06:38:23;60.15;;;13.75;;
18752;SDS011;9505;50.882;5.350;2023-04-06T06:40:49;66.97;;;13.82;;
18752;SDS011;9505;50.882;5.350;2023-04-06T06:43:14;60.25;;;13.95;;
18752;SDS011;9505;50.882;5.350;2023-04-06T06:45:40;67.57;;;15.10;;
18752;SDS011;9505;50.882;5.350;2023-04-06T06:48:06;70.88;;;14.50;;
18752;SDS011;9505;50.882;5.350;2023-04-06T06:50:32;54.83;;;13.18;;
18752;SDS011;9505;50.882;5.350;2023-04-06T06:52:57;46.88;;;13.07;;
18752;SDS011;9505;50.882;5.350;2023-04-06T06:55:23;62.78;;;14.07;;
18752;SDS011;9505;50.882;5.350;2023-04-06T06:57:50;57.95;;;13.52;;
18752;SDS011;9505;50.882;5.350;2023-04-06T07:00:15;61.35;;;13.40;;
18752;SDS011;9505;50.882;5.350;2023-04-06T07:02:41;54.70;;;12.73;;
18752;SDS011;9505;50.882;5.350;2023-04-06T07:05:07;55.45;;;13.38;;
18752;SDS011;9505;50.882;5.350;2023-04-06T07:07:33;48.53;;;12.40;;
18752;SDS011;9505;50.882;5.350;2023-04-06T07:09:59;51.90;;;12.52;;
18752;SDS011;9505;50.882;5.350;2023-04-06T07:12:25;53.63;;;13.20;;
18752;SDS011;9505;50.882;5.350;2023-04-06T07:14:51;60.85;;;14.10;;
18752;SDS011;9505;50.882;5.350;2023-04-06T07:17:17;54.35;;;12.77;;
18752;SDS011;9505;50.882;5.350;2023-04-06T07:19:43;56.03;;;13.65;;
18752;SDS011;9505;50.882;5.350;2023-04-06T07:22:08;48.08;;;12.23;;
18752;SDS011;9505;50.882;5.350;2023-04-06T07:24:34;33.28;;;9.50;;
18752;SDS011;9505;50.882;5.350;2023-04-06T07:27:00;37.63;;;10.80;;
18752;SDS011;9505;50.882;5.350;2023-04-06T07:29:26;46.50;;;11.50;;
18752;SDS011;9505;50.882;5.350;2023-04-06T07:31:52;57.13;;;18.02;;
18752;SDS011;9505;50.882;5.350;2023-04-06T07:34:18;37.38;;;9.77;;
18752;SDS011;9505;50.882;5.350;2023-04-06T07:36:44;41.28;;;10.50;;
18752;SDS011;9505;50.882;5.350;2023-04-06T07:39:10;39.67;;;10.20;;
18752;SDS011;9505;50.882;5.350;2023-04-06T07:41:35;30.27;;;9.88;;
18752;SDS011;9505;50.882;5.350;2023-04-06T07:44:01;46.88;;;11.13;;
18752;SDS011;9505;50.882;5.350;2023-04-06T07:46:27;32.88;;;9.80;;
18752;SDS011;9505;50.882;5.350;2023-04-06T07:48:53;23.70;;;8.40;;
18752;SDS011;9505;50.882;5.350;2023-04-06T07:51:18;42.45;;;12.38;;
18752;SDS011;9505;50.882;5.350;2023-04-06T07:53:44;66.10;;;13.52;;
18752;SDS011;9505;50.882;5.350;2023-04-06T07:56:10;53.97;;;11.27;;
18752;SDS011;9505;50.882;5.350;2023-04-06T07:58:37;36.10;;;9.30;;
18752;SDS011;9505;50.882;5.350;2023-04-06T08:01:02;47.58;;;16.77;;
18752;SDS011;9505;50.882;5.350;2023-04-06T08:03:28;26.83;;;8.25;;
18752;SDS011;9505;50.882;5.350;2023-04-06T08:05:54;42.80;;;10.07;;
18752;SDS011;9505;50.882;5.350;2023-04-06T08:08:20;47.78;;;10.45;;
18752;SDS011;9505;50.882;5.350;2023-04-06T08:10:47;39.90;;;9.40;;
18752;SDS011;9505;50.882;5.350;2023-04-06T08:13:13;54.28;;;11.57;;
18752;SDS011;9505;50.882;5.350;2023-04-06T08:15:39;40.45;;;9.85;;
18752;SDS011;9505;50.882;5.350;2023-04-06T08:18:05;29.10;;;9.45;;
18752;SDS011;9505;50.882;5.350;2023-04-06T08:20:31;43.63;;;10.57;;
18752;SDS011;9505;50.882;5.350;2023-04-06T08:22:56;42.45;;;10.30;;
18752;SDS011;9505;50.882;5.350;2023-04-06T08:25:22;59.08;;;11.38;;
18752;SDS011;9505;50.882;5.350;2023-04-06T08:27:48;42.63;;;9.48;;
18752;SDS011;9505;50.882;5.350;2023-04-06T08:30:13;45.03;;;10.05;;
18752;SDS011;9505;50.882;5.350;2023-04-06T08:32:41;34.20;;;9.93;;
18752;SDS011;9505;50.882;5.350;2023-04-06T08:35:07;48.53;;;10.35;;
18752;SDS011;9505;50.882;5.350;2023-04-06T08:37:33;50.35;;;10.35;;
18752;SDS011;9505;50.882;5.350;2023-04-06T08:39:59;31.30;;;8.48;;
18752;SDS011;9505;50.882;5.350;2023-04-06T08:42:25;42.50;;;10.43;;
18752;SDS011;9505;50.882;5.350;2023-04-06T08:44:53;46.55;;;9.75;;
18752;SDS011;9505;50.882;5.350;2023-04-06T08:47:20;60.28;;;11.45;;
18752;SDS011;9505;50.882;5.350;2023-04-06T08:49:46;42.47;;;9.80;;
18752;SDS011;9505;50.882;5.350;2023-04-06T08:52:12;41.35;;;9.80;;
18752;SDS011;9505;50.882;5.350;2023-04-06T08:54:40;42.85;;;9.52;;
18752;SDS011;9505;50.882;5.350;2023-04-06T08:57:05;47.05;;;8.95;;
18752;SDS011;9505;50.882;5.350;2023-04-06T08:59:32;45.50;;;9.70;;
18752;SDS011;9505;50.882;5.350;2023-04-06T09:01:59;50.78;;;10.35;;
18752;SDS011;9505;50.882;5.350;2023-04-06T09:04:28;46.92;;;10.60;;
18752;SDS011;9505;50.882;5.350;2023-04-06T09:06:53;42.42;;;9.10;;
18752;SDS011;9505;50.882;5.350;2023-04-06T09:09:19;39.97;;;9.48;;
18752;SDS011;9505;50.882;5.350;2023-04-06T09:11:46;34.83;;;8.80;;
18752;SDS011;9505;50.882;5.350;2023-04-06T09:14:16;28.05;;;7.60;;
18752;SDS011;9505;50.882;5.350;2023-04-06T09:16:42;40.92;;;10.07;;
18752;SDS011;9505;50.882;5.350;2023-04-06T09:19:10;45.72;;;10.13;;
18752;SDS011;9505;50.882;5.350;2023-04-06T09:21:37;28.80;;;8.95;;
18752;SDS011;9505;50.882;5.350;2023-04-06T09:24:06;33.13;;;9.13;;
18752;SDS011;9505;50.882;5.350;2023-04-06T09:26:32;32.67;;;8.95;;
18752;SDS011;9505;50.882;5.350;2023-04-06T09:29:08;45.30;;;8.93;;
18752;SDS011;9505;50.882;5.350;2023-04-06T09:31:34;34.45;;;8.23;;
18752;SDS011;9505;50.882;5.350;2023-04-06T09:34:00;32.72;;;8.98;;
18752;SDS011;9505;50.882;5.350;2023-04-06T09:36:30;31.40;;;7.95;;
18752;SDS011;9505;50.882;5.350;2023-04-06T09:39:03;45.83;;;9.35;;
18752;SDS011;9505;50.882;5.350;2023-04-06T09:41:33;33.28;;;8.07;;
18752;SDS011;9505;50.882;5.350;2023-04-06T09:46:33;34.33;;;7.72;;
18752;SDS011;9505;50.882;5.350;2023-04-06T09:49:01;33.53;;;7.78;;
18752;SDS011;9505;50.882;5.350;2023-04-06T09:51:28;44.47;;;9.30;;
18752;SDS011;9505;50.882;5.350;2023-04-06T09:54:04;29.73;;;8.20;;
18752;SDS011;9505;50.882;5.350;2023-04-06T09:56:31;55.20;;;10.13;;
18752;SDS011;9505;50.882;5.350;2023-04-06T09:59:05;42.38;;;9.40;;
18752;SDS011;9505;50.882;5.350;2023-04-06T10:01:38;43.30;;;8.95;;
18752;SDS011;9505;50.882;5.350;2023-04-06T10:06:48;32.88;;;8.07;;
18752;SDS011;9505;50.882;5.350;2023-04-06T10:09:17;33.05;;;8.63;;
18752;SDS011;9505;50.882;5.350;2023-04-06T10:11:47;27.08;;;7.13;;
18752;SDS011;9505;50.882;5.350;2023-04-06T10:14:14;28.17;;;7.88;;
18752;SDS011;9505;50.882;5.350;2023-04-06T10:16:40;44.10;;;9.30;;
18752;SDS011;9505;50.882;5.350;2023-04-06T10:19:13;35.00;;;8.45;;
18752;SDS011;9505;50.882;5.350;2023-04-06T10:21:48;37.38;;;8.35;;
18752;SDS011;9505;50.882;5.350;2023-04-06T10:24:18;30.70;;;8.38;;
18752;SDS011;9505;50.882;5.350;2023-04-06T10:26:56;21.13;;;6.40;;
18752;SDS011;9505;50.882;5.350;2023-04-06T10:29:40;25.45;;;6.57;;
18752;SDS011;9505;50.882;5.350;2023-04-06T10:32:13;40.90;;;8.73;;
18752;SDS011;9505;50.882;5.350;2023-04-06T10:34:39;27.70;;;6.97;;
18752;SDS011;9505;50.882;5.350;2023-04-06T10:37:14;34.10;;;7.43;;
18752;SDS011;9505;50.882;5.350;2023-04-06T10:39:47;33.35;;;7.90;;
18752;SDS011;9505;50.882;5.350;2023-04-06T10:42:25;33.42;;;8.07;;
18752;SDS011;9505;50.882;5.350;2023-04-06T10:45:01;36.55;;;8.02;;
18752;SDS011;9505;50.882;5.350;2023-04-06T10:47:29;38.38;;;10.88;;
18752;SDS011;9505;50.882;5.350;2023-04-06T10:50:05;38.25;;;9.77;;
18752;SDS011;9505;50.882;5.350;2023-04-06T10:52:31;35.13;;;8.10;;
18752;SDS011;9505;50.882;5.350;2023-04-06T10:54:56;42.47;;;9.18;;
18752;SDS011;9505;50.882;5.350;2023-04-06T10:57:29;33.25;;;7.45;;
18752;SDS011;9505;50.882;5.350;2023-04-06T10:59:55;45.92;;;9.32;;
18752;SDS011;9505;50.882;5.350;2023-04-06T11:02:21;38.90;;;8.38;;
18752;SDS011;9505;50.882;5.350;2023-04-06T11:04:56;35.50;;;7.63;;
18752;SDS011;9505;50.882;5.350;2023-04-06T11:07:23;39.20;;;8.57;;
18752;SDS011;9505;50.882;5.350;2023-04-06T11:09:54;31.13;;;7.20;;
18752;SDS011;9505;50.882;5.350;2023-04-06T11:12:23;51.88;;;8.27;;
18752;SDS011;9505;50.882;5.350;2023-04-06T11:14:53;30.02;;;7.00;;
18752;SDS011;9505;50.882;5.350;2023-04-06T11:17:34;37.50;;;7.80;;
18752;SDS011;9505;50.882;5.350;2023-04-06T11:20:03;34.90;;;7.55;;
18752;SDS011;9505;50.882;5.350;2023-04-06T11:22:34;43.33;;;8.75;;
18752;SDS011;9505;50.882;5.350;2023-04-06T11:25:06;36.80;;;7.95;;
18752;SDS011;9505;50.882;5.350;2023-04-06T11:27:33;46.33;;;8.45;;
18752;SDS011;9505;50.882;5.350;2023-04-06T11:30:00;40.78;;;11.18;;
18752;SDS011;9505;50.882;5.350;2023-04-06T11:32:26;41.00;;;8.43;;
18752;SDS011;9505;50.882;5.350;2023-04-06T11:34:52;52.05;;;10.65;;
18752;SDS011;9505;50.882;5.350;2023-04-06T11:37:18;45.10;;;9.05;;
18752;SDS011;9505;50.882;5.350;2023-04-06T11:39:47;49.45;;;9.32;;
18752;SDS011;9505;50.882;5.350;2023-04-06T11:42:25;36.95;;;7.38;;
18752;SDS011;9505;50.882;5.350;2023-04-06T11:44:53;41.80;;;7.95;;
18752;SDS011;9505;50.882;5.350;2023-04-06T11:47:20;44.40;;;8.88;;
18752;SDS011;9505;50.882;5.350;2023-04-06T11:49:55;29.88;;;6.90;;
18752;SDS011;9505;50.882;5.350;2023-04-06T11:52:29;39.13;;;7.40;;
18752;SDS011;9505;50.882;5.350;2023-04-06T11:54:56;41.40;;;8.23;;
18752;SDS011;9505;50.882;5.350;2023-04-06T11:57:22;40.97;;;8.60;;
18752;SDS011;9505;50.882;5.350;2023-04-06T11:59:50;42.63;;;8.43;;
18752;SDS011;9505;50.882;5.350;2023-04-06T12:02:16;42.15;;;8.52;;
18752;SDS011;9505;50.882;5.350;2023-04-06T12:04:42;43.78;;;7.95;;
18752;SDS011;9505;50.882;5.350;2023-04-06T12:07:08;43.95;;;8.93;;
18752;SDS011;9505;50.882;5.350;2023-04-06T12:09:34;36.63;;;7.57;;
18752;SDS011;9505;50.882;5.350;2023-04-06T12:12:01;40.75;;;8.38;;
18752;SDS011;9505;50.882;5.350;2023-04-06T12:14:28;42.15;;;8.75;;
18752;SDS011;9505;50.882;5.350;2023-04-06T12:16:55;37.58;;;7.43;;
18752;SDS011;9505;50.882;5.350;2023-04-06T12:19:22;39.85;;;8.73;;
18752;SDS011;9505;50.882;5.350;2023-04-06T12:21:50;39.50;;;8.55;;
18752;SDS011;9505;50.882;5.350;2023-04-06T12:24:19;42.28;;;8.65;;
18752;SDS011;9505;50.882;5.350;2023-04-06T12:26:45;39.67;;;8.35;;
18752;SDS011;9505;50.882;5.350;2023-04-06T12:29:11;39.30;;;8.30;;
18752;SDS011;9505;50.882;5.350;2023-04-06T12:31:38;39.80;;;7.95;;
18752;SDS011;9505;50.882;5.350;2023-04-06T12:34:05;36.40;;;7.80;;
18752;SDS011;9505;50.882;5.350;2023-04-06T12:36:32;39.08;;;8.38;;
18752;SDS011;9505;50.882;5.350;2023-04-06T12:38:58;36.92;;;8.05;;
18752;SDS011;9505;50.882;5.350;2023-04-06T12:41:24;31.25;;;7.45;;
18752;SDS011;9505;50.882;5.350;2023-04-06T12:43:50;43.38;;;9.07;;
18752;SDS011;9505;50.882;5.350;2023-04-06T12:46:15;41.67;;;8.25;;
18752;SDS011;9505;50.882;5.350;2023-04-06T12:48:41;38.80;;;8.38;;
18752;SDS011;9505;50.882;5.350;2023-04-06T12:51:07;43.50;;;9.13;;
18752;SDS011;9505;50.882;5.350;2023-04-06T12:53:33;38.40;;;8.43;;
18752;SDS011;9505;50.882;5.350;2023-04-06T12:55:59;39.53;;;8.18;;
18752;SDS011;9505;50.882;5.350;2023-04-06T12:58:26;37.75;;;8.20;;
18752;SDS011;9505;50.882;5.350;2023-04-06T13:00:53;46.20;;;8.10;;
18752;SDS011;9505;50.882;5.350;2023-04-06T13:03:19;38.63;;;8.85;;
18752;SDS011;9505;50.882;5.350;2023-04-06T13:05:54;41.30;;;9.18;;
18752;SDS011;9505;50.882;5.350;2023-04-06T13:08:20;39.55;;;8.60;;
18752;SDS011;9505;50.882;5.350;2023-04-06T13:10:49;44.67;;;9.45;;
18752;SDS011;9505;50.882;5.350;2023-04-06T13:13:17;42.63;;;9.65;;
18752;SDS011;9505;50.882;5.350;2023-04-06T13:15:45;44.33;;;9.32;;
18752;SDS011;9505;50.882;5.350;2023-04-06T13:18:11;45.58;;;9.65;;
18752;SDS011;9505;50.882;5.350;2023-04-06T13:20:37;40.30;;;8.50;;
18752;SDS011;9505;50.882;5.350;2023-04-06T13:23:02;42.65;;;10.27;;
18752;SDS011;9505;50.882;5.350;2023-04-06T13:25:28;34.75;;;8.73;;
18752;SDS011;9505;50.882;5.350;2023-04-06T13:27:55;45.05;;;8.48;;
18752;SDS011;9505;50.882;5.350;2023-04-06T13:30:20;45.10;;;8.50;;
18752;SDS011;9505;50.882;5.350;2023-04-06T13:32:46;34.42;;;8.15;;
18752;SDS011;9505;50.882;5.350;2023-04-06T13:35:12;40.67;;;8.48;;
18752;SDS011;9505;50.882;5.350;2023-04-06T13:37:38;34.60;;;7.80;;
18752;SDS011;9505;50.882;5.350;2023-04-06T13:40:04;42.67;;;8.43;;
18752;SDS011;9505;50.882;5.350;2023-04-06T13:42:31;43.95;;;8.38;;
18752;SDS011;9505;50.882;5.350;2023-04-06T13:44:57;40.08;;;8.80;;
18752;SDS011;9505;50.882;5.350;2023-04-06T13:47:24;32.10;;;7.50;;
18752;SDS011;9505;50.882;5.350;2023-04-06T13:49:50;50.13;;;9.18;;
18752;SDS011;9505;50.882;5.350;2023-04-06T13:52:19;42.70;;;9.77;;
18752;SDS011;9505;50.882;5.350;2023-04-06T13:54:45;39.58;;;8.00;;
18752;SDS011;9505;50.882;5.350;2023-04-06T13:57:11;36.03;;;8.02;;
18752;SDS011;9505;50.882;5.350;2023-04-06T13:59:37;37.10;;;7.95;;
18752;SDS011;9505;50.882;5.350;2023-04-06T14:02:03;33.13;;;7.60;;
18752;SDS011;9505;50.882;5.350;2023-04-06T14:04:30;33.22;;;7.72;;
18752;SDS011;9505;50.882;5.350;2023-04-06T14:07:00;32.58;;;8.07;;
18752;SDS011;9505;50.882;5.350;2023-04-06T14:09:27;34.83;;;7.78;;
18752;SDS011;9505;50.882;5.350;2023-04-06T14:11:53;42.10;;;8.93;;
18752;SDS011;9505;50.882;5.350;2023-04-06T14:14:19;30.17;;;7.68;;
18752;SDS011;9505;50.882;5.350;2023-04-06T14:16:44;46.13;;;8.73;;
18752;SDS011;9505;50.882;5.350;2023-04-06T14:19:11;33.75;;;8.30;;
18752;SDS011;9505;50.882;5.350;2023-04-06T14:21:39;38.95;;;8.60;;
18752;SDS011;9505;50.882;5.350;2023-04-06T14:24:06;37.45;;;8.95;;
18752;SDS011;9505;50.882;5.350;2023-04-06T14:26:33;38.55;;;8.35;;
18752;SDS011;9505;50.882;5.350;2023-04-06T14:28:59;41.13;;;8.32;;
18752;SDS011;9505;50.882;5.350;2023-04-06T14:31:26;30.83;;;7.13;;
18752;SDS011;9505;50.882;5.350;2023-04-06T14:33:51;38.08;;;8.32;;
18752;SDS011;9505;50.882;5.350;2023-04-06T14:36:18;39.25;;;8.50;;
18752;SDS011;9505;50.882;5.350;2023-04-06T14:38:43;35.95;;;8.48;;
18752;SDS011;9505;50.882;5.350;2023-04-06T14:41:14;34.53;;;8.27;;
18752;SDS011;9505;50.882;5.350;2023-04-06T14:43:44;46.25;;;10.45;;